sensor_id;sensor_type;location;lat;lon;timestamp;temperature;humidity
12413;DHT22;13877;18.896;-99.222;2022-09-09T00:04:42;21.70;99.90
12413;DHT22;13877;18.896;-99.222;2022-09-09T00:12:39;21.80;99.90
12413;DHT22;13877;18.896;-99.222;2022-09-09T00:15:13;21.80;99.90
12413;DHT22;13877;18.896;-99.222;2022-09-09T00:20:33;21.80;99.90
12413;DHT22;13877;18.896;-99.222;2022-09-09T00:23:17;21.70;99.90
12413;DHT22;13877;18.896;-99.222;2022-09-09T00:26:09;21.70;99.90
12413;DHT22;13877;18.896;-99.222;2022-09-09T00:28:55;21.70;99.90
12413;DHT22;13877;18.896;-99.222;2022-09-09T00:31:26;21.60;99.90
12413;DHT22;13877;18.896;-99.222;2022-09-09T00:33:54;21.60;99.90
12413;DHT22;13877;18.896;-99.222;2022-09-09T00:36:26;21.50;99.90
12413;DHT22;13877;18.896;-99.222;2022-09-09T00:38:58;21.40;99.90
12413;DHT22;13877;18.896;-99.222;2022-09-09T00:44:32;21.30;99.90
12413;DHT22;13877;18.896;-99.222;2022-09-09T00:49:59;21.20;99.90
12413;DHT22;13877;18.896;-99.222;2022-09-09T00:55:38;21.30;99.90
12413;DHT22;13877;18.896;-99.222;2022-09-09T00:58:08;21.30;99.90
12413;DHT22;13877;18.896;-99.222;2022-09-09T01:00:44;21.20;99.90
12413;DHT22;13877;18.896;-99.222;2022-09-09T01:03:31;21.10;99.90
12413;DHT22;13877;18.896;-99.222;2022-09-09T01:06:02;21.20;99.90
12413;DHT22;13877;18.896;-99.222;2022-09-09T01:11:26;21.30;99.90
12413;DHT22;13877;18.896;-99.222;2022-09-09T01:14:20;21.30;99.90
12413;DHT22;13877;18.896;-99.222;2022-09-09T01:16:55;21.20;99.90
12413;DHT22;13877;18.896;-99.222;2022-09-09T01:20:02;21.20;99.90
12413;DHT22;13877;18.896;-99.222;2022-09-09T01:22:59;21.20;99.90
12413;DHT22;13877;18.896;-99.222;2022-09-09T01:28:32;21.30;99.90
12413;DHT22;13877;18.896;-99.222;2022-09-09T01:31:06;21.30;99.90
12413;DHT22;13877;18.896;-99.222;2022-09-09T01:33:41;21.20;99.90
12413;DHT22;13877;18.896;-99.222;2022-09-09T01:36:20;21.20;99.90
12413;DHT22;13877;18.896;-99.222;2022-09-09T01:38:52;21.20;99.90
12413;DHT22;13877;18.896;-99.222;2022-09-09T01:41:21;21.20;99.90
12413;DHT22;13877;18.896;-99.222;2022-09-09T01:43:55;21.10;99.90
12413;DHT22;13877;18.896;-99.222;2022-09-09T01:46:28;21.00;99.90
12413;DHT22;13877;18.896;-99.222;2022-09-09T01:48:57;20.90;99.90
12413;DHT22;13877;18.896;-99.222;2022-09-09T01:51:27;20.90;99.90
12413;DHT22;13877;18.896;-99.222;2022-09-09T01:53:56;20.90;99.90
12413;DHT22;13877;18.896;-99.222;2022-09-09T02:02:26;20.80;99.90
12413;DHT22;13877;18.896;-99.222;2022-09-09T02:05:23;20.70;99.90
12413;DHT22;13877;18.896;-99.222;2022-09-09T02:11:07;20.70;99.90
12413;DHT22;13877;18.896;-99.222;2022-09-09T02:13:51;20.70;99.90
12413;DHT22;13877;18.896;-99.222;2022-09-09T02:16:31;20.70;99.90
12413;DHT22;13877;18.896;-99.222;2022-09-09T02:19:42;20.90;99.90
12413;DHT22;13877;18.896;-99.222;2022-09-09T02:22:10;21.00;99.90
12413;DHT22;13877;18.896;-99.222;2022-09-09T02:24:40;20.80;99.90
12413;DHT22;13877;18.896;-99.222;2022-09-09T02:27:15;20.70;99.90
12413;DHT22;13877;18.896;-99.222;2022-09-09T02:29:44;20.70;99.90
12413;DHT22;13877;18.896;-99.222;2022-09-09T02:32:15;20.70;99.90
12413;DHT22;13877;18.896;-99.222;2022-09-09T02:34:47;20.50;99.90
12413;DHT22;13877;18.896;-99.222;2022-09-09T02:37:17;20.40;99.90
12413;DHT22;13877;18.896;-99.222;2022-09-09T02:39:49;20.30;99.90
12413;DHT22;13877;18.896;-99.222;2022-09-09T02:42:19;20.30;99.90
12413;DHT22;13877;18.896;-99.222;2022-09-09T02:44:46;20.30;99.90
12413;DHT22;13877;18.896;-99.222;2022-09-09T02:50:06;20.20;99.90
12413;DHT22;13877;18.896;-99.222;2022-09-09T02:55:48;20.30;99.90
12413;DHT22;13877;18.896;-99.222;2022-09-09T02:58:19;20.40;99.90
12413;DHT22;13877;18.896;-99.222;2022-09-09T03:01:06;20.30;99.90
12413;DHT22;13877;18.896;-99.222;2022-09-09T03:03:36;20.30;99.90
12413;DHT22;13877;18.896;-99.222;2022-09-09T03:06:07;20.40;99.90
12413;DHT22;13877;18.896;-99.222;2022-09-09T03:08:35;20.40;99.90
12413;DHT22;13877;18.896;-99.222;2022-09-09T03:11:02;20.50;99.90
12413;DHT22;13877;18.896;-99.222;2022-09-09T03:13:32;20.60;99.90
12413;DHT22;13877;18.896;-99.222;2022-09-09T03:16:00;20.70;99.90
12413;DHT22;13877;18.896;-99.222;2022-09-09T03:18:30;20.70;99.90
12413;DHT22;13877;18.896;-99.222;2022-09-09T03:20:58;20.70;99.90
12413;DHT22;13877;18.896;-99.222;2022-09-09T03:23:26;20.60;99.90
12413;DHT22;13877;18.896;-99.222;2022-09-09T03:25:53;20.70;99.90
12413;DHT22;13877;18.896;-99.222;2022-09-09T03:28:29;20.70;99.90
12413;DHT22;13877;18.896;-99.222;2022-09-09T03:31:03;20.70;99.90
12413;DHT22;13877;18.896;-99.222;2022-09-09T03:33:35;20.60;99.90
12413;DHT22;13877;18.896;-99.222;2022-09-09T03:36:04;20.50;99.90
12413;DHT22;13877;18.896;-99.222;2022-09-09T03:38:32;20.50;99.90
12413;DHT22;13877;18.896;-99.222;2022-09-09T03:41:00;20.50;99.90
12413;DHT22;13877;18.896;-99.222;2022-09-09T03:43:29;20.50;99.90
12413;DHT22;13877;18.896;-99.222;2022-09-09T03:45:57;20.50;99.90
12413;DHT22;13877;18.896;-99.222;2022-09-09T03:48:26;20.40;99.90
12413;DHT22;13877;18.896;-99.222;2022-09-09T03:50:55;20.40;99.90
12413;DHT22;13877;18.896;-99.222;2022-09-09T03:53:24;20.30;99.90
12413;DHT22;13877;18.896;-99.222;2022-09-09T03:55:54;20.20;99.90
12413;DHT22;13877;18.896;-99.222;2022-09-09T03:58:26;20.20;99.90
12413;DHT22;13877;18.896;-99.222;2022-09-09T04:01:08;20.30;99.90
12413;DHT22;13877;18.896;-99.222;2022-09-09T04:03:36;20.30;99.90
12413;DHT22;13877;18.896;-99.222;2022-09-09T04:06:04;20.30;99.90
12413;DHT22;13877;18.896;-99.222;2022-09-09T04:08:33;20.20;99.90
12413;DHT22;13877;18.896;-99.222;2022-09-09T04:11:02;20.00;99.90
12413;DHT22;13877;18.896;-99.222;2022-09-09T04:13:35;20.00;99.90
12413;DHT22;13877;18.896;-99.222;2022-09-09T04:16:04;20.00;99.90
12413;DHT22;13877;18.896;-99.222;2022-09-09T04:18:33;20.00;99.90
12413;DHT22;13877;18.896;-99.222;2022-09-09T04:21:01;20.00;99.90
12413;DHT22;13877;18.896;-99.222;2022-09-09T04:23:31;20.00;99.90
12413;DHT22;13877;18.896;-99.222;2022-09-09T04:26:00;20.10;99.90
12413;DHT22;13877;18.896;-99.222;2022-09-09T04:28:30;20.20;99.90
12413;DHT22;13877;18.896;-99.222;2022-09-09T04:31:07;20.20;99.90
12413;DHT22;13877;18.896;-99.222;2022-09-09T04:33:36;20.00;99.90
12413;DHT22;13877;18.896;-99.222;2022-09-09T04:36:03;19.90;99.90
12413;DHT22;13877;18.896;-99.222;2022-09-09T04:38:33;19.80;99.90
12413;DHT22;13877;18.896;-99.222;2022-09-09T04:41:00;19.70;99.90
12413;DHT22;13877;18.896;-99.222;2022-09-09T04:43:27;19.70;99.90
12413;DHT22;13877;18.896;-99.222;2022-09-09T04:45:54;19.70;99.90
12413;DHT22;13877;18.896;-99.222;2022-09-09T04:48:24;19.60;99.90
12413;DHT22;13877;18.896;-99.222;2022-09-09T04:50:59;19.70;99.90
12413;DHT22;13877;18.896;-99.222;2022-09-09T04:53:26;19.60;99.90
12413;DHT22;13877;18.896;-99.222;2022-09-09T04:56:11;19.60;99.90
12413;DHT22;13877;18.896;-99.222;2022-09-09T04:58:47;19.70;99.90
12413;DHT22;13877;18.896;-99.222;2022-09-09T05:01:17;19.60;99.90
12413;DHT22;13877;18.896;-99.222;2022-09-09T05:03:46;19.60;99.90
12413;DHT22;13877;18.896;-99.222;2022-09-09T05:06:19;19.50;99.90
12413;DHT22;13877;18.896;-99.222;2022-09-09T05:08:49;19.50;99.90
12413;DHT22;13877;18.896;-99.222;2022-09-09T05:13:51;19.40;99.90
12413;DHT22;13877;18.896;-99.222;2022-09-09T05:16:20;19.20;99.90
12413;DHT22;13877;18.896;-99.222;2022-09-09T05:18:47;19.20;99.90
12413;DHT22;13877;18.896;-99.222;2022-09-09T05:21:19;19.20;99.90
12413;DHT22;13877;18.896;-99.222;2022-09-09T05:23:47;19.30;99.90
12413;DHT22;13877;18.896;-99.222;2022-09-09T05:26:17;19.40;99.90
12413;DHT22;13877;18.896;-99.222;2022-09-09T05:28:48;19.50;99.90
12413;DHT22;13877;18.896;-99.222;2022-09-09T05:31:16;19.40;99.90
12413;DHT22;13877;18.896;-99.222;2022-09-09T05:33:47;19.30;99.90
12413;DHT22;13877;18.896;-99.222;2022-09-09T05:36:18;19.20;99.90
12413;DHT22;13877;18.896;-99.222;2022-09-09T05:38:47;19.30;99.90
12413;DHT22;13877;18.896;-99.222;2022-09-09T05:41:15;19.50;99.90
12413;DHT22;13877;18.896;-99.222;2022-09-09T05:43:43;19.50;99.90
12413;DHT22;13877;18.896;-99.222;2022-09-09T05:46:18;19.40;99.90
12413;DHT22;13877;18.896;-99.222;2022-09-09T05:48:48;19.40;99.90
12413;DHT22;13877;18.896;-99.222;2022-09-09T05:51:20;19.40;99.90
12413;DHT22;13877;18.896;-99.222;2022-09-09T05:53:49;19.50;99.90
12413;DHT22;13877;18.896;-99.222;2022-09-09T05:56:22;19.60;99.90
12413;DHT22;13877;18.896;-99.222;2022-09-09T05:58:53;19.50;99.90
12413;DHT22;13877;18.896;-99.222;2022-09-09T06:01:25;19.40;99.90
12413;DHT22;13877;18.896;-99.222;2022-09-09T06:03:57;19.50;99.90
12413;DHT22;13877;18.896;-99.222;2022-09-09T06:06:26;19.50;99.90
12413;DHT22;13877;18.896;-99.222;2022-09-09T06:08:57;19.60;99.90
12413;DHT22;13877;18.896;-99.222;2022-09-09T06:11:31;19.70;99.90
12413;DHT22;13877;18.896;-99.222;2022-09-09T06:13:59;19.80;99.90
12413;DHT22;13877;18.896;-99.222;2022-09-09T06:16:29;19.90;99.90
12413;DHT22;13877;18.896;-99.222;2022-09-09T06:18:57;19.90;99.90
12413;DHT22;13877;18.896;-99.222;2022-09-09T06:21:35;19.90;99.90
12413;DHT22;13877;18.896;-99.222;2022-09-09T06:24:06;19.90;99.90
12413;DHT22;13877;18.896;-99.222;2022-09-09T06:26:38;19.90;99.90
12413;DHT22;13877;18.896;-99.222;2022-09-09T06:29:09;19.80;99.90
12413;DHT22;13877;18.896;-99.222;2022-09-09T06:31:37;19.90;99.90
12413;DHT22;13877;18.896;-99.222;2022-09-09T06:34:10;19.90;99.90
12413;DHT22;13877;18.896;-99.222;2022-09-09T06:36:41;20.10;99.90
12413;DHT22;13877;18.896;-99.222;2022-09-09T06:39:08;20.20;99.90
12413;DHT22;13877;18.896;-99.222;2022-09-09T06:41:38;20.20;99.90
12413;DHT22;13877;18.896;-99.222;2022-09-09T06:44:08;20.20;99.90
12413;DHT22;13877;18.896;-99.222;2022-09-09T06:46:41;20.20;99.90
12413;DHT22;13877;18.896;-99.222;2022-09-09T06:49:09;20.10;99.90
12413;DHT22;13877;18.896;-99.222;2022-09-09T06:51:37;20.00;99.90
12413;DHT22;13877;18.896;-99.222;2022-09-09T06:54:12;19.90;99.90
12413;DHT22;13877;18.896;-99.222;2022-09-09T06:56:42;19.90;99.90
12413;DHT22;13877;18.896;-99.222;2022-09-09T06:59:16;19.80;99.90
12413;DHT22;13877;18.896;-99.222;2022-09-09T07:01:46;19.70;99.90
12413;DHT22;13877;18.896;-99.222;2022-09-09T07:04:18;19.70;99.90
12413;DHT22;13877;18.896;-99.222;2022-09-09T07:06:46;19.50;99.90
12413;DHT22;13877;18.896;-99.222;2022-09-09T07:09:20;19.40;99.90
12413;DHT22;13877;18.896;-99.222;2022-09-09T07:11:51;19.30;99.90
12413;DHT22;13877;18.896;-99.222;2022-09-09T07:14:21;19.20;99.90
12413;DHT22;13877;18.896;-99.222;2022-09-09T07:16:54;19.20;99.90
12413;DHT22;13877;18.896;-99.222;2022-09-09T07:19:21;19.30;99.90
12413;DHT22;13877;18.896;-99.222;2022-09-09T07:21:51;19.50;99.90
12413;DHT22;13877;18.896;-99.222;2022-09-09T07:24:21;19.60;99.90
12413;DHT22;13877;18.896;-99.222;2022-09-09T07:26:49;19.70;99.90
12413;DHT22;13877;18.896;-99.222;2022-09-09T07:29:16;19.90;99.90
12413;DHT22;13877;18.896;-99.222;2022-09-09T07:31:43;20.00;99.90
12413;DHT22;13877;18.896;-99.222;2022-09-09T07:34:13;20.00;99.90
12413;DHT22;13877;18.896;-99.222;2022-09-09T07:36:41;20.00;99.90
12413;DHT22;13877;18.896;-99.222;2022-09-09T07:39:13;20.00;99.90
12413;DHT22;13877;18.896;-99.222;2022-09-09T07:41:48;20.00;99.90
12413;DHT22;13877;18.896;-99.222;2022-09-09T07:44:21;20.00;99.90
12413;DHT22;13877;18.896;-99.222;2022-09-09T07:46:51;20.00;99.90
12413;DHT22;13877;18.896;-99.222;2022-09-09T07:49:23;20.00;99.90
12413;DHT22;13877;18.896;-99.222;2022-09-09T07:51:50;20.00;99.90
12413;DHT22;13877;18.896;-99.222;2022-09-09T07:54:19;20.00;99.90
12413;DHT22;13877;18.896;-99.222;2022-09-09T07:56:50;20.10;99.90
12413;DHT22;13877;18.896;-99.222;2022-09-09T07:59:18;20.10;99.90
12413;DHT22;13877;18.896;-99.222;2022-09-09T08:01:50;20.10;99.90
12413;DHT22;13877;18.896;-99.222;2022-09-09T08:04:21;20.10;99.90
12413;DHT22;13877;18.896;-99.222;2022-09-09T08:06:53;20.10;99.90
12413;DHT22;13877;18.896;-99.222;2022-09-09T08:09:23;20.10;99.90
12413;DHT22;13877;18.896;-99.222;2022-09-09T08:12:02;20.10;99.90
12413;DHT22;13877;18.896;-99.222;2022-09-09T08:14:30;20.10;99.90
12413;DHT22;13877;18.896;-99.222;2022-09-09T08:16:58;20.10;99.90
12413;DHT22;13877;18.896;-99.222;2022-09-09T08:19:28;20.10;99.90
12413;DHT22;13877;18.896;-99.222;2022-09-09T08:22:00;20.10;99.90
12413;DHT22;13877;18.896;-99.222;2022-09-09T08:24:28;20.10;99.90
12413;DHT22;13877;18.896;-99.222;2022-09-09T08:26:57;20.10;99.90
12413;DHT22;13877;18.896;-99.222;2022-09-09T08:29:24;20.10;99.90
12413;DHT22;13877;18.896;-99.222;2022-09-09T08:31:55;20.10;99.90
12413;DHT22;13877;18.896;-99.222;2022-09-09T08:34:25;20.10;99.90
12413;DHT22;13877;18.896;-99.222;2022-09-09T08:36:54;20.10;99.90
12413;DHT22;13877;18.896;-99.222;2022-09-09T08:39:27;20.00;99.90
12413;DHT22;13877;18.896;-99.222;2022-09-09T08:43:01;20.00;99.90
12413;DHT22;13877;18.896;-99.222;2022-09-09T08:45:11;19.90;99.90
12413;DHT22;13877;18.896;-99.222;2022-09-09T08:47:57;19.90;99.90
12413;DHT22;13877;18.896;-99.222;2022-09-09T08:55:55;19.80;99.90
12413;DHT22;13877;18.896;-99.222;2022-09-09T08:58:49;19.80;99.90
12413;DHT22;13877;18.896;-99.222;2022-09-09T09:07:03;19.50;99.90
12413;DHT22;13877;18.896;-99.222;2022-09-09T09:09:46;19.50;99.90
12413;DHT22;13877;18.896;-99.222;2022-09-09T09:12:19;19.40;99.90
12413;DHT22;13877;18.896;-99.222;2022-09-09T09:14:48;19.40;99.90
12413;DHT22;13877;18.896;-99.222;2022-09-09T09:17:21;19.40;99.90
12413;DHT22;13877;18.896;-99.222;2022-09-09T09:19:50;19.40;99.90
12413;DHT22;13877;18.896;-99.222;2022-09-09T09:25:11;19.40;99.90
12413;DHT22;13877;18.896;-99.222;2022-09-09T09:31:26;19.50;99.90
12413;DHT22;13877;18.896;-99.222;2022-09-09T09:33:55;19.50;99.90
12413;DHT22;13877;18.896;-99.222;2022-09-09T09:36:42;19.60;99.90
12413;DHT22;13877;18.896;-99.222;2022-09-09T09:39:39;19.60;99.90
12413;DHT22;13877;18.896;-99.222;2022-09-09T09:42:13;19.60;99.90
12413;DHT22;13877;18.896;-99.222;2022-09-09T09:44:43;19.70;99.90
12413;DHT22;13877;18.896;-99.222;2022-09-09T09:47:22;19.60;99.90
12413;DHT22;13877;18.896;-99.222;2022-09-09T09:49:59;19.70;99.90
12413;DHT22;13877;18.896;-99.222;2022-09-09T09:52:34;19.60;99.90
12413;DHT22;13877;18.896;-99.222;2022-09-09T09:55:05;19.60;99.90
12413;DHT22;13877;18.896;-99.222;2022-09-09T09:57:40;19.60;99.90
12413;DHT22;13877;18.896;-99.222;2022-09-09T10:00:18;19.60;99.90
12413;DHT22;13877;18.896;-99.222;2022-09-09T10:02:53;19.50;99.90
12413;DHT22;13877;18.896;-99.222;2022-09-09T10:05:29;19.50;99.90
12413;DHT22;13877;18.896;-99.222;2022-09-09T10:08:11;19.50;99.90
12413;DHT22;13877;18.896;-99.222;2022-09-09T10:13:59;19.50;99.90
12413;DHT22;13877;18.896;-99.222;2022-09-09T10:19:34;19.60;99.90
12413;DHT22;13877;18.896;-99.222;2022-09-09T10:27:44;19.50;99.90
12413;DHT22;13877;18.896;-99.222;2022-09-09T10:30:30;19.40;99.90
12413;DHT22;13877;18.896;-99.222;2022-09-09T10:33:15;19.40;99.90
12413;DHT22;13877;18.896;-99.222;2022-09-09T10:47:20;19.20;99.90
12413;DHT22;13877;18.896;-99.222;2022-09-09T10:55:37;19.20;99.90
12413;DHT22;13877;18.896;-99.222;2022-09-09T10:58:14;19.10;99.90
12413;DHT22;13877;18.896;-99.222;2022-09-09T11:00:49;19.00;99.90
12413;DHT22;13877;18.896;-99.222;2022-09-09T11:03:24;19.00;99.90
12413;DHT22;13877;18.896;-99.222;2022-09-09T11:06:00;19.00;99.90
12413;DHT22;13877;18.896;-99.222;2022-09-09T11:08:34;19.00;99.90
12413;DHT22;13877;18.896;-99.222;2022-09-09T11:11:25;19.00;99.90
12413;DHT22;13877;18.896;-99.222;2022-09-09T11:14:12;19.00;99.90
12413;DHT22;13877;18.896;-99.222;2022-09-09T11:16:46;19.10;99.90
12413;DHT22;13877;18.896;-99.222;2022-09-09T11:22:04;19.00;99.90
12413;DHT22;13877;18.896;-99.222;2022-09-09T11:24:41;19.10;99.90
12413;DHT22;13877;18.896;-99.222;2022-09-09T11:27:19;19.00;99.90
12413;DHT22;13877;18.896;-99.222;2022-09-09T11:30:13;18.90;99.90
12413;DHT22;13877;18.896;-99.222;2022-09-09T11:32:56;18.80;99.90
12413;DHT22;13877;18.896;-99.222;2022-09-09T11:38:10;18.80;99.90
12413;DHT22;13877;18.896;-99.222;2022-09-09T11:40:41;18.70;99.90
12413;DHT22;13877;18.896;-99.222;2022-09-09T11:46:09;18.70;99.90
12413;DHT22;13877;18.896;-99.222;2022-09-09T11:48:42;18.70;99.90
12413;DHT22;13877;18.896;-99.222;2022-09-09T11:53:52;18.70;99.90
12413;DHT22;13877;18.896;-99.222;2022-09-09T11:56:34;18.70;99.90
12413;DHT22;13877;18.896;-99.222;2022-09-09T11:59:30;18.60;99.90
12413;DHT22;13877;18.896;-99.222;2022-09-09T12:04:46;18.60;99.90
12413;DHT22;13877;18.896;-99.222;2022-09-09T12:07:32;18.60;99.90
12413;DHT22;13877;18.896;-99.222;2022-09-09T12:12:45;18.70;99.90
12413;DHT22;13877;18.896;-99.222;2022-09-09T12:17:44;18.60;99.90
12413;DHT22;13877;18.896;-99.222;2022-09-09T12:22:59;18.70;99.90
12413;DHT22;13877;18.896;-99.222;2022-09-09T12:28:18;18.60;99.90
12413;DHT22;13877;18.896;-99.222;2022-09-09T12:30:55;18.60;99.90
12413;DHT22;13877;18.896;-99.222;2022-09-09T12:33:23;18.50;99.90
12413;DHT22;13877;18.896;-99.222;2022-09-09T12:35:56;18.40;99.90
12413;DHT22;13877;18.896;-99.222;2022-09-09T12:38:36;18.30;99.90
12413;DHT22;13877;18.896;-99.222;2022-09-09T12:41:04;18.20;99.90
12413;DHT22;13877;18.896;-99.222;2022-09-09T12:43:31;18.10;99.90
12413;DHT22;13877;18.896;-99.222;2022-09-09T12:46:01;18.10;99.90
12413;DHT22;13877;18.896;-99.222;2022-09-09T12:48:36;18.20;99.90
12413;DHT22;13877;18.896;-99.222;2022-09-09T12:51:40;18.20;99.90
12413;DHT22;13877;18.896;-99.222;2022-09-09T12:54:13;18.30;99.90
12413;DHT22;13877;18.896;-99.222;2022-09-09T12:56:46;18.30;99.90
12413;DHT22;13877;18.896;-99.222;2022-09-09T12:59:25;18.30;99.90
12413;DHT22;13877;18.896;-99.222;2022-09-09T13:01:57;18.40;99.90
12413;DHT22;13877;18.896;-99.222;2022-09-09T13:04:24;18.40;99.90
12413;DHT22;13877;18.896;-99.222;2022-09-09T13:06:51;18.50;99.90
12413;DHT22;13877;18.896;-99.222;2022-09-09T13:09:22;18.60;99.90
12413;DHT22;13877;18.896;-99.222;2022-09-09T13:11:54;18.70;99.90
12413;DHT22;13877;18.896;-99.222;2022-09-09T13:14:29;18.90;99.90
12413;DHT22;13877;18.896;-99.222;2022-09-09T13:16:58;19.10;99.90
12413;DHT22;13877;18.896;-99.222;2022-09-09T13:19:26;19.20;99.90
12413;DHT22;13877;18.896;-99.222;2022-09-09T13:21:55;19.40;99.90
12413;DHT22;13877;18.896;-99.222;2022-09-09T13:24:30;19.50;99.90
12413;DHT22;13877;18.896;-99.222;2022-09-09T13:27:20;19.60;99.90
12413;DHT22;13877;18.896;-99.222;2022-09-09T13:29:54;19.70;99.90
12413;DHT22;13877;18.896;-99.222;2022-09-09T13:32:25;19.80;99.90
12413;DHT22;13877;18.896;-99.222;2022-09-09T13:35:00;19.90;99.90
12413;DHT22;13877;18.896;-99.222;2022-09-09T13:37:36;20.10;99.90
12413;DHT22;13877;18.896;-99.222;2022-09-09T13:40:18;20.40;99.90
12413;DHT22;13877;18.896;-99.222;2022-09-09T13:42:45;20.70;99.90
12413;DHT22;13877;18.896;-99.222;2022-09-09T13:45:19;20.90;99.90
12413;DHT22;13877;18.896;-99.222;2022-09-09T13:47:49;21.10;99.90
12413;DHT22;13877;18.896;-99.222;2022-09-09T13:52:52;21.50;99.90
12413;DHT22;13877;18.896;-99.222;2022-09-09T13:55:21;21.50;99.90
12413;DHT22;13877;18.896;-99.222;2022-09-09T13:57:56;21.50;99.90
12413;DHT22;13877;18.896;-99.222;2022-09-09T14:00:24;21.70;99.90
12413;DHT22;13877;18.896;-99.222;2022-09-09T14:02:52;21.90;99.90
12413;DHT22;13877;18.896;-99.222;2022-09-09T14:05:22;21.90;99.90
12413;DHT22;13877;18.896;-99.222;2022-09-09T14:07:49;21.70;99.90
12413;DHT22;13877;18.896;-99.222;2022-09-09T14:10:17;21.80;99.90
12413;DHT22;13877;18.896;-99.222;2022-09-09T14:12:44;21.80;99.90
12413;DHT22;13877;18.896;-99.222;2022-09-09T14:15:11;22.10;99.90
12413;DHT22;13877;18.896;-99.222;2022-09-09T14:17:38;22.50;99.90
12413;DHT22;13877;18.896;-99.222;2022-09-09T14:20:07;22.60;99.90
12413;DHT22;13877;18.896;-99.222;2022-09-09T14:22:38;22.30;99.90
12413;DHT22;13877;18.896;-99.222;2022-09-09T14:25:08;22.30;99.90
12413;DHT22;13877;18.896;-99.222;2022-09-09T14:27:35;22.30;99.90
12413;DHT22;13877;18.896;-99.222;2022-09-09T14:30:04;22.40;99.90
12413;DHT22;13877;18.896;-99.222;2022-09-09T14:32:31;23.20;99.90
12413;DHT22;13877;18.896;-99.222;2022-09-09T14:34:57;23.50;99.90
12413;DHT22;13877;18.896;-99.222;2022-09-09T14:37:24;23.20;99.90
12413;DHT22;13877;18.896;-99.222;2022-09-09T14:39:51;22.80;99.90
12413;DHT22;13877;18.896;-99.222;2022-09-09T14:42:19;22.20;99.90
12413;DHT22;13877;18.896;-99.222;2022-09-09T14:44:45;21.80;99.90
12413;DHT22;13877;18.896;-99.222;2022-09-09T14:47:14;21.60;99.90
12413;DHT22;13877;18.896;-99.222;2022-09-09T14:49:41;21.60;99.90
12413;DHT22;13877;18.896;-99.222;2022-09-09T14:52:09;21.50;99.90
12413;DHT22;13877;18.896;-99.222;2022-09-09T14:54:36;21.50;99.90
12413;DHT22;13877;18.896;-99.222;2022-09-09T14:57:03;21.50;99.90
12413;DHT22;13877;18.896;-99.222;2022-09-09T14:59:30;21.50;99.90
12413;DHT22;13877;18.896;-99.222;2022-09-09T15:01:57;21.60;99.90
12413;DHT22;13877;18.896;-99.222;2022-09-09T15:04:26;21.60;99.90
12413;DHT22;13877;18.896;-99.222;2022-09-09T15:06:54;21.70;99.90
12413;DHT22;13877;18.896;-99.222;2022-09-09T15:09:20;21.80;99.90
12413;DHT22;13877;18.896;-99.222;2022-09-09T15:11:48;21.70;99.90
12413;DHT22;13877;18.896;-99.222;2022-09-09T15:14:15;21.70;99.90
12413;DHT22;13877;18.896;-99.222;2022-09-09T15:16:42;22.70;99.90
12413;DHT22;13877;18.896;-99.222;2022-09-09T15:19:09;23.60;99.90
12413;DHT22;13877;18.896;-99.222;2022-09-09T15:21:37;24.50;99.90
12413;DHT22;13877;18.896;-99.222;2022-09-09T15:24:05;24.60;99.90
12413;DHT22;13877;18.896;-99.222;2022-09-09T15:26:33;24.30;99.90
12413;DHT22;13877;18.896;-99.222;2022-09-09T15:29:01;24.70;99.90
12413;DHT22;13877;18.896;-99.222;2022-09-09T15:31:30;25.00;99.90
12413;DHT22;13877;18.896;-99.222;2022-09-09T15:34:07;25.70;99.30
12413;DHT22;13877;18.896;-99.222;2022-09-09T15:36:36;25.90;98.20
12413;DHT22;13877;18.896;-99.222;2022-09-09T15:39:05;25.10;99.10
12413;DHT22;13877;18.896;-99.222;2022-09-09T15:41:33;24.60;99.90
12413;DHT22;13877;18.896;-99.222;2022-09-09T15:44:00;24.10;99.90
12413;DHT22;13877;18.896;-99.222;2022-09-09T15:46:39;23.60;99.90
12413;DHT22;13877;18.896;-99.222;2022-09-09T15:49:12;23.60;99.90
12413;DHT22;13877;18.896;-99.222;2022-09-09T15:51:42;24.60;99.90
12413;DHT22;13877;18.896;-99.222;2022-09-09T15:54:12;25.20;99.70
12413;DHT22;13877;18.896;-99.222;2022-09-09T15:56:41;26.10;98.30
12413;DHT22;13877;18.896;-99.222;2022-09-09T15:59:09;26.30;97.00
12413;DHT22;13877;18.896;-99.222;2022-09-09T16:01:36;26.00;95.40
12413;DHT22;13877;18.896;-99.222;2022-09-09T16:04:06;25.70;95.30
12413;DHT22;13877;18.896;-99.222;2022-09-09T16:06:33;26.50;94.30
12413;DHT22;13877;18.896;-99.222;2022-09-09T16:09:03;27.00;94.60
12413;DHT22;13877;18.896;-99.222;2022-09-09T16:11:34;26.50;94.60
12413;DHT22;13877;18.896;-99.222;2022-09-09T16:14:05;26.30;95.10
12413;DHT22;13877;18.896;-99.222;2022-09-09T16:16:33;26.40;94.40
12413;DHT22;13877;18.896;-99.222;2022-09-09T16:19:04;26.70;95.00
12413;DHT22;13877;18.896;-99.222;2022-09-09T16:21:35;27.20;94.30
12413;DHT22;13877;18.896;-99.222;2022-09-09T16:24:04;27.70;93.30
12413;DHT22;13877;18.896;-99.222;2022-09-09T16:26:33;27.20;93.50
12413;DHT22;13877;18.896;-99.222;2022-09-09T16:29:02;27.50;91.90
12413;DHT22;13877;18.896;-99.222;2022-09-09T16:31:30;27.60;93.00
12413;DHT22;13877;18.896;-99.222;2022-09-09T16:33:58;27.60;92.00
12413;DHT22;13877;18.896;-99.222;2022-09-09T16:36:27;27.60;91.30
12413;DHT22;13877;18.896;-99.222;2022-09-09T16:39:01;27.40;92.60
12413;DHT22;13877;18.896;-99.222;2022-09-09T16:41:30;27.70;93.00
12413;DHT22;13877;18.896;-99.222;2022-09-09T16:43:59;27.70;92.30
12413;DHT22;13877;18.896;-99.222;2022-09-09T16:46:27;27.50;90.80
12413;DHT22;13877;18.896;-99.222;2022-09-09T16:48:57;26.30;91.60
12413;DHT22;13877;18.896;-99.222;2022-09-09T16:51:32;27.20;91.80
12413;DHT22;13877;18.896;-99.222;2022-09-09T16:54:02;27.80;94.30
12413;DHT22;13877;18.896;-99.222;2022-09-09T16:56:31;27.60;92.40
12413;DHT22;13877;18.896;-99.222;2022-09-09T16:59:04;27.50;93.00
12413;DHT22;13877;18.896;-99.222;2022-09-09T17:01:33;27.90;92.40
12413;DHT22;13877;18.896;-99.222;2022-09-09T17:04:02;28.20;91.80
12413;DHT22;13877;18.896;-99.222;2022-09-09T17:06:30;26.70;93.20
12413;DHT22;13877;18.896;-99.222;2022-09-09T17:09:01;25.90;94.40
12413;DHT22;13877;18.896;-99.222;2022-09-09T17:11:29;25.70;95.40
12413;DHT22;13877;18.896;-99.222;2022-09-09T17:13:58;26.60;93.30
12413;DHT22;13877;18.896;-99.222;2022-09-09T17:16:27;27.10;93.70
12413;DHT22;13877;18.896;-99.222;2022-09-09T17:18:55;28.00;91.40
12413;DHT22;13877;18.896;-99.222;2022-09-09T17:21:25;28.50;89.10
12413;DHT22;13877;18.896;-99.222;2022-09-09T17:23:54;28.60;88.90
12413;DHT22;13877;18.896;-99.222;2022-09-09T17:26:25;28.60;89.10
12413;DHT22;13877;18.896;-99.222;2022-09-09T17:28:57;28.50;90.10
12413;DHT22;13877;18.896;-99.222;2022-09-09T17:31:25;27.80;89.60